createdAt,value
2018-12-20T00:00:34.756Z,0
2018-12-20T00:01:37.410Z,0
2018-12-20T00:02:39.960Z,0
2018-12-20T00:03:42.887Z,0
2018-12-20T00:04:45.603Z,0
2018-12-20T00:05:48.152Z,0
2018-12-20T00:06:50.794Z,0
2018-12-20T00:07:53.392Z,0
2018-12-20T00:08:55.783Z,0
2018-12-20T00:09:57.905Z,0
2018-12-20T00:11:00.618Z,0
2018-12-20T00:12:03.147Z,0
2018-12-20T00:13:05.872Z,0
2018-12-20T00:14:08.725Z,0
2018-12-20T00:15:11.395Z,0
2018-12-20T00:16:14.036Z,0
2018-12-20T00:17:16.859Z,0
2018-12-20T00:18:19.513Z,0
2018-12-20T00:19:21.897Z,0
2018-12-20T00:20:24.533Z,0
2018-12-20T00:21:27.593Z,0
2018-12-20T00:22:30.410Z,0
2018-12-20T00:23:33.269Z,0
2018-12-20T00:24:35.786Z,0
2018-12-20T00:25:38.968Z,0
2018-12-20T00:26:42.113Z,0
2018-12-20T00:27:45.258Z,0
2018-12-20T00:28:47.705Z,0
2018-12-20T00:29:50.214Z,0
2018-12-20T00:30:52.919Z,0
2018-12-20T00:31:55.691Z,0
2018-12-20T00:32:58.713Z,0
2018-12-20T00:34:01.554Z,0
2018-12-20T00:35:04.490Z,0
2018-12-20T00:36:08.131Z,0
2018-12-20T00:37:11.445Z,0
2018-12-20T00:38:14.927Z,0
2018-12-20T00:39:17.684Z,0
2018-12-20T00:40:20.868Z,0
2018-12-20T00:41:23.365Z,0
2018-12-20T00:42:26.269Z,0
2018-12-20T00:43:28.777Z,0
2018-12-20T00:44:37.336Z,0
2018-12-20T00:45:39.783Z,0
2018-12-20T00:46:42.776Z,0
2018-12-20T00:47:46.108Z,0
2018-12-20T00:48:48.898Z,0
2018-12-20T00:49:51.660Z,0
2018-12-20T00:50:55.107Z,0
2018-12-20T00:51:57.989Z,0
2018-12-20T00:53:00.982Z,0
2018-12-20T00:54:04.148Z,0
2018-12-20T00:55:07.010Z,0
2018-12-20T00:56:09.814Z,0
2018-12-20T00:57:12.835Z,0
2018-12-20T00:58:15.280Z,0
2018-12-20T00:59:18.390Z,0
2018-12-20T01:00:21.099Z,0
2018-12-20T01:01:24.043Z,0
2018-12-20T01:02:27.084Z,0
2018-12-20T01:03:30.864Z,0
2018-12-20T01:04:33.695Z,0
2018-12-20T01:05:36.977Z,0
2018-12-20T01:06:39.890Z,0
2018-12-20T01:07:42.971Z,0
2018-12-20T01:08:46.390Z,0
2018-12-20T01:09:49.147Z,0
2018-12-20T01:10:52.339Z,0
2018-12-20T01:11:55.694Z,0
2018-12-20T01:12:58.755Z,0
2018-12-20T01:14:01.691Z,0
2018-12-20T01:15:04.615Z,0
2018-12-20T01:16:07.936Z,0
2018-12-20T01:17:11.306Z,0
2018-12-20T01:18:14.771Z,0
2018-12-20T01:19:18.381Z,0
2018-12-20T01:20:22.143Z,0
2018-12-20T01:21:25.235Z,0
2018-12-20T01:22:28.465Z,0
2018-12-20T01:23:31.226Z,0
2018-12-20T01:24:34.139Z,0
2018-12-20T01:25:37.118Z,0
2018-12-20T01:26:40.092Z,0
2018-12-20T01:27:43.015Z,0
2018-12-20T01:28:46.130Z,0
2018-12-20T01:29:48.695Z,0
2018-12-20T01:30:51.550Z,0
2018-12-20T01:31:55.105Z,0
2018-12-20T01:32:58.083Z,0
2018-12-20T01:34:01.479Z,0
2018-12-20T01:35:04.578Z,0
2018-12-20T01:36:07.656Z,0
2018-12-20T01:37:10.524Z,0
2018-12-20T01:38:13.837Z,0
2018-12-20T01:39:16.891Z,0
2018-12-20T01:40:20.615Z,0
2018-12-20T01:41:23.655Z,0
2018-12-20T01:42:26.657Z,0
2018-12-20T01:43:29.846Z,0
2018-12-20T01:44:32.928Z,0
2018-12-20T01:45:35.863Z,0
2018-12-20T01:46:38.862Z,0
2018-12-20T01:47:42.065Z,0
2018-12-20T01:48:45.005Z,0
2018-12-20T01:49:47.997Z,0
2018-12-20T01:50:51.131Z,0
2018-12-20T01:51:54.221Z,0
2018-12-20T01:52:57.419Z,0
2018-12-20T01:54:01.578Z,0
2018-12-20T01:55:04.968Z,0
2018-12-20T01:56:08.154Z,0
2018-12-20T01:57:11.120Z,0
2018-12-20T01:58:14.297Z,0
2018-12-20T01:59:16.574Z,0
2018-12-20T02:00:20.002Z,0
2018-12-20T02:01:23.439Z,0
2018-12-20T02:02:26.574Z,0
2018-12-20T02:03:29.697Z,0
2018-12-20T02:04:32.797Z,0
2018-12-20T02:05:36.065Z,0
2018-12-20T02:06:39.459Z,0
2018-12-20T02:07:42.747Z,0
2018-12-20T02:08:46.090Z,0
2018-12-20T02:09:49.274Z,0
2018-12-20T02:10:52.232Z,0
2018-12-20T02:11:55.036Z,0
2018-12-20T02:12:58.201Z,0
2018-12-20T02:14:01.712Z,0
2018-12-20T02:15:04.375Z,0
2018-12-20T02:16:08.062Z,0
2018-12-20T02:17:11.275Z,0
2018-12-20T02:18:14.207Z,0
2018-12-20T02:19:17.522Z,0
2018-12-20T02:20:19.832Z,0
2018-12-20T02:21:22.975Z,0
2018-12-20T02:22:26.200Z,0
2018-12-20T02:23:29.036Z,0
2018-12-20T02:24:32.138Z,0
2018-12-20T02:25:34.999Z,0
2018-12-20T02:26:37.717Z,0
2018-12-20T02:27:41.006Z,0
2018-12-20T02:28:44.309Z,0
2018-12-20T02:29:47.548Z,0
2018-12-20T02:30:50.739Z,0
2018-12-20T02:31:54.485Z,0
2018-12-20T02:32:56.663Z,0
2018-12-20T02:34:00.008Z,0
2018-12-20T02:35:03.639Z,0
2018-12-20T02:36:07.275Z,0
2018-12-20T02:37:10.801Z,0
2018-12-20T02:38:14.311Z,0
2018-12-20T02:39:17.915Z,0
2018-12-20T02:40:21.025Z,0
2018-12-20T02:41:24.318Z,0
2018-12-20T02:42:27.779Z,0
2018-12-20T02:43:30.620Z,0
2018-12-20T02:44:33.847Z,0
2018-12-20T02:45:37.176Z,0
2018-12-20T02:46:40.225Z,0
2018-12-20T02:47:43.599Z,0
2018-12-20T02:48:46.796Z,0
2018-12-20T02:49:50.406Z,0
2018-12-20T02:50:53.016Z,0
2018-12-20T02:51:56.681Z,0
2018-12-20T02:52:59.751Z,0
2018-12-20T02:54:02.838Z,0
2018-12-20T02:55:06.023Z,0
2018-12-20T02:56:09.628Z,0
2018-12-20T02:57:11.899Z,0
2018-12-20T02:58:14.952Z,0
2018-12-20T02:59:18.497Z,0
2018-12-20T03:00:21.999Z,0
2018-12-20T03:01:25.809Z,0
2018-12-20T03:02:28.323Z,0
2018-12-20T03:03:32.373Z,0
2018-12-20T03:04:34.500Z,0
2018-12-20T03:05:37.491Z,0
2018-12-20T03:06:41.101Z,0
2018-12-20T03:07:43.266Z,0
2018-12-20T03:08:46.611Z,0
2018-12-20T03:09:48.887Z,0
2018-12-20T03:10:52.307Z,0
2018-12-20T03:11:54.434Z,0
2018-12-20T03:12:57.437Z,0
2018-12-20T03:14:00.796Z,0
2018-12-20T03:15:04.316Z,0
2018-12-20T03:16:07.766Z,0
2018-12-20T03:17:11.474Z,0
2018-12-20T03:18:14.186Z,0
2018-12-20T03:19:17.583Z,0
2018-12-20T03:20:20.521Z,0
2018-12-20T03:21:23.591Z,0
2018-12-20T03:22:27.267Z,0
2018-12-20T03:23:30.880Z,0
2018-12-20T03:24:34.338Z,0
2018-12-20T03:25:37.845Z,0
2018-12-20T03:26:41.011Z,0
2018-12-20T03:27:44.881Z,0
2018-12-20T03:28:48.265Z,0
2018-12-20T03:29:51.545Z,0
2018-12-20T03:30:54.913Z,0
2018-12-20T03:31:59.216Z,0
2018-12-20T03:33:03.598Z,0
2018-12-20T03:34:07.336Z,0
2018-12-20T03:35:10.295Z,0
2018-12-20T03:36:13.549Z,0
2018-12-20T03:37:16.986Z,0
2018-12-20T03:38:20.219Z,0
2018-12-20T03:39:23.538Z,0
2018-12-20T03:40:26.479Z,0
2018-12-20T03:41:28.589Z,0
2018-12-20T03:42:32.164Z,0
2018-12-20T03:43:35.483Z,0
2018-12-20T03:44:38.821Z,0
2018-12-20T03:45:42.690Z,0
2018-12-20T03:46:45.925Z,0
2018-12-20T03:47:49.278Z,0
2018-12-20T03:48:52.716Z,0
2018-12-20T03:49:56.164Z,0
2018-12-20T03:50:59.491Z,0
2018-12-20T03:52:03.100Z,0
2018-12-20T03:53:07.122Z,0
2018-12-20T03:54:10.546Z,0
2018-12-20T03:55:14.625Z,0
2018-12-20T03:56:17.801Z,0
2018-12-20T03:57:21.465Z,0
2018-12-20T03:58:24.819Z,0
2018-12-20T03:59:28.550Z,0
2018-12-20T04:00:30.993Z,0
2018-12-20T04:01:34.257Z,0
2018-12-20T04:02:38.131Z,0
2018-12-20T04:03:41.716Z,0
2018-12-20T04:04:45.051Z,0
2018-12-20T04:05:48.384Z,0
2018-12-20T04:06:51.381Z,0
2018-12-20T04:07:54.438Z,0
2018-12-20T04:08:57.441Z,0
2018-12-20T04:10:00.650Z,0
2018-12-20T04:11:04.143Z,0
2018-12-20T04:12:06.820Z,0
2018-12-20T04:13:09.533Z,0
2018-12-20T04:14:12.032Z,0
2018-12-20T04:15:15.543Z,0
2018-12-20T04:16:19.446Z,0
2018-12-20T04:17:22.636Z,0
2018-12-20T04:18:25.791Z,0
2018-12-20T04:19:29.888Z,0
2018-12-20T04:20:33.000Z,0
2018-12-20T04:21:36.584Z,0
2018-12-20T04:22:39.703Z,0
2018-12-20T04:23:43.520Z,0
2018-12-20T04:24:47.267Z,0
2018-12-20T04:25:50.793Z,0
2018-12-20T04:26:54.677Z,0
2018-12-20T04:27:56.843Z,0
2018-12-20T04:29:00.952Z,0
2018-12-20T04:30:03.557Z,0
2018-12-20T04:31:07.993Z,0
2018-12-20T04:32:11.777Z,0
2018-12-20T04:33:15.242Z,0
2018-12-20T04:34:18.391Z,0
2018-12-20T04:35:22.305Z,0
2018-12-20T04:36:24.760Z,0
2018-12-20T04:37:28.561Z,0
2018-12-20T04:38:32.013Z,0
2018-12-20T04:39:35.017Z,0
2018-12-20T04:40:38.226Z,0
2018-12-20T04:41:41.819Z,0
2018-12-20T04:42:43.996Z,0
2018-12-20T04:43:47.638Z,0
2018-12-20T04:44:51.214Z,0
2018-12-20T04:45:54.452Z,0
2018-12-20T04:46:59.583Z,0
2018-12-20T04:48:03.862Z,0
2018-12-20T04:49:07.590Z,0
2018-12-20T04:50:11.441Z,0
2018-12-20T04:51:14.965Z,0
2018-12-20T04:52:18.306Z,0
2018-12-20T04:53:21.982Z,0
2018-12-20T04:54:25.937Z,0
2018-12-20T04:55:29.512Z,0
2018-12-20T04:56:32.235Z,0
2018-12-20T04:57:35.635Z,0
2018-12-20T04:58:39.409Z,0
2018-12-20T04:59:42.589Z,0
2018-12-20T05:00:45.686Z,0
2018-12-20T05:01:49.905Z,0
2018-12-20T05:02:54.255Z,0
2018-12-20T05:03:58.225Z,0
2018-12-20T05:05:02.015Z,0
2018-12-20T05:06:04.783Z,0
2018-12-20T05:07:06.943Z,0
2018-12-20T05:08:09.855Z,0
2018-12-20T05:09:13.609Z,0
2018-12-20T05:10:17.390Z,0
2018-12-20T05:11:20.845Z,0
2018-12-20T05:12:24.500Z,0
2018-12-20T05:13:28.164Z,0
2018-12-20T05:14:32.095Z,0
2018-12-20T05:15:35.878Z,0
2018-12-20T05:16:38.044Z,0
2018-12-20T05:17:41.291Z,0
2018-12-20T05:18:45.015Z,0
2018-12-20T05:19:48.937Z,0
2018-12-20T05:20:53.117Z,0
2018-12-20T05:21:57.091Z,0
2018-12-20T05:23:00.656Z,0
2018-12-20T05:24:02.764Z,0
2018-12-20T05:25:05.213Z,0
2018-12-20T05:26:09.045Z,0
2018-12-20T05:27:12.838Z,0
2018-12-20T05:28:16.406Z,0
2018-12-20T05:29:20.232Z,0
2018-12-20T05:30:23.396Z,0
2018-12-20T05:31:25.490Z,0
2018-12-20T05:32:27.624Z,0
2018-12-20T05:33:31.253Z,0
2018-12-20T05:34:34.714Z,0
2018-12-20T05:35:37.160Z,0
2018-12-20T05:36:40.360Z,0
2018-12-20T05:37:44.035Z,0
2018-12-20T05:38:47.101Z,0
2018-12-20T05:39:49.214Z,0
2018-12-20T05:40:52.314Z,0
2018-12-20T05:41:56.323Z,0
2018-12-20T05:42:59.610Z,0
2018-12-20T05:44:03.807Z,0
2018-12-20T05:45:07.180Z,0
2018-12-20T05:46:10.543Z,0
2018-12-20T05:47:13.946Z,0
2018-12-20T05:48:17.845Z,0
2018-12-20T05:49:21.345Z,0
2018-12-20T05:50:23.959Z,0
2018-12-20T05:51:26.749Z,0
2018-12-20T05:52:29.872Z,0
2018-12-20T05:53:32.992Z,0
2018-12-20T05:54:35.991Z,0
2018-12-20T05:55:38.931Z,0
2018-12-20T05:56:41.791Z,0
2018-12-20T05:57:45.473Z,0
2018-12-20T05:58:48.971Z,0
2018-12-20T05:59:51.965Z,0
2018-12-20T06:00:55.078Z,0
2018-12-20T06:01:58.535Z,0
2018-12-20T06:03:02.044Z,0
2018-12-20T06:04:05.206Z,0
2018-12-20T06:05:08.762Z,0
2018-12-20T06:06:12.418Z,0
2018-12-20T06:07:15.825Z,0
2018-12-20T06:08:18.252Z,0
2018-12-20T06:09:21.678Z,0
2018-12-20T06:10:25.364Z,0
2018-12-20T06:11:29.021Z,0
2018-12-20T06:12:31.420Z,0
2018-12-20T06:13:35.145Z,0
2018-12-20T06:14:38.912Z,0
2018-12-20T06:15:42.506Z,0
2018-12-20T06:16:45.250Z,0
2018-12-20T06:17:48.120Z,0
2018-12-20T06:18:51.828Z,0
2018-12-20T06:19:55.325Z,0
2018-12-20T06:20:58.670Z,0
2018-12-20T06:22:01.235Z,0
2018-12-20T06:23:04.030Z,0
2018-12-20T06:24:06.336Z,0
2018-12-20T06:25:08.560Z,0
2018-12-20T06:26:10.687Z,0
2018-12-20T06:27:12.800Z,0
2018-12-20T06:28:14.900Z,0
2018-12-20T06:29:17.608Z,0
2018-12-20T06:30:19.711Z,0
2018-12-20T06:31:21.819Z,0
2018-12-20T06:32:23.942Z,0
2018-12-20T06:33:26.315Z,0
2018-12-20T06:34:29.018Z,0
2018-12-20T06:35:31.125Z,0
2018-12-20T06:36:33.236Z,0
2018-12-20T06:37:35.347Z,0
2018-12-20T06:38:37.464Z,0
2018-12-20T06:39:39.892Z,0
2018-12-20T06:40:42.007Z,0
2018-12-20T06:41:44.142Z,0
2018-12-20T06:42:46.237Z,0
2018-12-20T06:43:48.355Z,0
2018-12-20T06:44:50.477Z,0
2018-12-20T06:45:52.889Z,0
2018-12-20T06:46:55.272Z,0
2018-12-20T06:47:57.389Z,0
2018-12-20T06:48:59.801Z,0
2018-12-20T06:50:01.907Z,0
2018-12-20T06:51:04.028Z,0
2018-12-20T06:52:06.165Z,0
2018-12-20T06:53:08.667Z,0
2018-12-20T06:54:11.059Z,0
2018-12-20T06:55:13.179Z,4
2018-12-20T06:56:15.305Z,4
2018-12-20T06:57:17.399Z,4
2018-12-20T06:58:19.527Z,0
2018-12-20T06:59:22.150Z,4
2018-12-20T07:00:24.323Z,4
2018-12-20T07:01:26.804Z,4
2018-12-20T07:02:28.926Z,8
2018-12-20T07:03:31.333Z,4
2018-12-20T07:04:33.444Z,8
2018-12-20T07:05:35.568Z,8
2018-12-20T07:06:37.665Z,12
2018-12-20T07:07:39.790Z,12
2018-12-20T07:08:41.921Z,16
2018-12-20T07:09:44.042Z,12
2018-12-20T07:10:46.145Z,16
2018-12-20T07:11:48.266Z,16
2018-12-20T07:12:50.370Z,16
2018-12-20T07:13:52.472Z,20
2018-12-20T07:14:54.602Z,20
2018-12-20T07:15:56.702Z,28
2018-12-20T07:16:58.818Z,32
2018-12-20T07:18:00.940Z,36
2018-12-20T07:19:03.048Z,40
2018-12-20T07:20:05.155Z,48
2018-12-20T07:21:07.269Z,56
2018-12-20T07:22:09.761Z,64
2018-12-20T07:23:12.145Z,72
2018-12-20T07:24:14.315Z,88
2018-12-20T07:25:16.824Z,108
2018-12-20T07:26:18.971Z,124
2018-12-20T07:27:21.353Z,140
2018-12-20T07:28:23.467Z,160
2018-12-20T07:29:25.594Z,176
2018-12-20T07:30:27.732Z,192
2018-12-20T07:31:29.871Z,212
2018-12-20T07:32:31.975Z,228
2018-12-20T07:33:34.095Z,244
2018-12-20T07:34:36.192Z,264
2018-12-20T07:35:38.324Z,280
2018-12-20T07:36:40.432Z,292
2018-12-20T07:37:42.829Z,308
2018-12-20T07:38:44.950Z,324
2018-12-20T07:39:47.435Z,344
2018-12-20T07:40:49.611Z,360
2018-12-20T07:41:51.731Z,376
2018-12-20T07:42:54.238Z,404
2018-12-20T07:43:56.342Z,420
2018-12-20T07:44:58.468Z,428
2018-12-20T07:46:00.671Z,432
2018-12-20T07:47:02.772Z,432
2018-12-20T07:48:04.896Z,416
2018-12-20T07:49:07.039Z,396
2018-12-20T07:50:09.449Z,384
2018-12-20T07:51:11.584Z,372
2018-12-20T07:52:13.699Z,384
2018-12-20T07:53:15.793Z,400
2018-12-20T07:54:17.910Z,420
2018-12-20T07:55:20.007Z,436
2018-12-20T07:56:22.406Z,452
2018-12-20T07:57:24.930Z,448
2018-12-20T07:58:27.138Z,444
2018-12-20T07:59:29.237Z,456
2018-12-20T08:00:31.366Z,484
2018-12-20T08:01:33.518Z,508
2018-12-20T08:02:35.683Z,484
2018-12-20T08:03:37.804Z,468
2018-12-20T08:04:39.900Z,460
2018-12-20T08:05:42.029Z,464
2018-12-20T08:06:44.151Z,472
2018-12-20T08:07:46.278Z,480
2018-12-20T08:08:48.368Z,484
2018-12-20T08:09:50.491Z,500
2018-12-20T08:10:52.598Z,524
2018-12-20T08:11:55.004Z,548
2018-12-20T08:12:57.523Z,580
2018-12-20T08:13:59.904Z,620
2018-12-20T08:15:02.121Z,660
2018-12-20T08:16:04.246Z,708
2018-12-20T08:17:06.376Z,744
2018-12-20T08:18:08.492Z,780
2018-12-20T08:19:10.614Z,792
2018-12-20T08:20:12.737Z,788
2018-12-20T08:21:14.846Z,764
2018-12-20T08:22:16.968Z,736
2018-12-20T08:23:19.760Z,732
2018-12-20T08:24:21.865Z,732
2018-12-20T08:25:24.271Z,724
2018-12-20T08:26:26.784Z,720
2018-12-20T08:27:28.891Z,728
2018-12-20T08:28:31.014Z,756
2018-12-20T08:29:33.205Z,800
2018-12-20T08:30:35.305Z,860
2018-12-20T08:31:37.511Z,936
2018-12-20T08:32:39.634Z,1012
2018-12-20T08:33:42.397Z,1064
2018-12-20T08:34:44.527Z,1100
2018-12-20T08:35:47.031Z,1144
2018-12-20T08:36:49.134Z,1176
2018-12-20T08:37:51.572Z,1144
2018-12-20T08:38:53.675Z,1060
2018-12-20T08:39:55.791Z,1028
2018-12-20T08:40:57.899Z,1108
2018-12-20T08:42:00.406Z,1112
2018-12-20T08:43:03.120Z,1028
2018-12-20T08:44:05.622Z,972
2018-12-20T08:45:07.729Z,960
2018-12-20T08:46:09.968Z,912
2018-12-20T08:47:12.076Z,856
2018-12-20T08:48:14.196Z,768
2018-12-20T08:49:16.303Z,704
2018-12-20T08:50:18.433Z,664
2018-12-20T08:51:20.537Z,632
2018-12-20T08:52:22.942Z,644
2018-12-20T08:53:25.054Z,672
2018-12-20T08:54:27.148Z,720
2018-12-20T08:55:29.275Z,828
2018-12-20T08:56:31.388Z,936
2018-12-20T08:57:33.492Z,1024
2018-12-20T08:58:35.611Z,1080
2018-12-20T08:59:37.745Z,1144
2018-12-20T09:00:39.952Z,1232
2018-12-20T09:01:42.071Z,1312
2018-12-20T09:02:44.181Z,1388
2018-12-20T09:03:46.282Z,1444
2018-12-20T09:04:48.393Z,1444
2018-12-20T09:05:50.521Z,1444
2018-12-20T09:06:52.962Z,1656
2018-12-20T09:07:55.080Z,1864
2018-12-20T09:08:57.311Z,1948
2018-12-20T09:09:59.411Z,2048
2018-12-20T09:11:01.542Z,2268
2018-12-20T09:12:03.648Z,2428
2018-12-20T09:13:09.631Z,2588
2018-12-20T09:14:12.451Z,2592
2018-12-20T09:15:14.682Z,2472
2018-12-20T09:16:16.780Z,2304
2018-12-20T09:17:19.189Z,2152
2018-12-20T09:18:21.312Z,2220
2018-12-20T09:19:23.706Z,2176
2018-12-20T09:20:32.642Z,2340
2018-12-20T09:21:35.090Z,2472
2018-12-20T09:22:37.200Z,2400
2018-12-20T09:23:39.330Z,2196
2018-12-20T09:24:41.439Z,2172
2018-12-20T09:25:43.842Z,2104
2018-12-20T09:26:46.255Z,2216
2018-12-20T09:27:48.736Z,2336
2018-12-20T09:28:50.852Z,2488
2018-12-20T09:29:55.241Z,2668
2018-12-20T09:30:57.345Z,2772
2018-12-20T09:31:59.472Z,2888
2018-12-20T09:33:01.803Z,2956
2018-12-20T09:34:03.909Z,2876
2018-12-20T09:35:06.029Z,2720
2018-12-20T09:36:08.144Z,2632
2018-12-20T09:37:10.248Z,2600
2018-12-20T09:38:12.361Z,2452
2018-12-20T09:39:14.569Z,2256
2018-12-20T09:40:16.671Z,2184
2018-12-20T09:41:18.792Z,2236
2018-12-20T09:42:20.912Z,2300
2018-12-20T09:43:24.843Z,2400
2018-12-20T09:44:27.148Z,2668
2018-12-20T09:45:29.265Z,2924
2018-12-20T09:46:31.429Z,3060
2018-12-20T09:47:33.930Z,3128
2018-12-20T09:48:36.074Z,3216
2018-12-20T09:49:38.179Z,3292
2018-12-20T09:50:40.659Z,3408
2018-12-20T09:51:42.778Z,3428
2018-12-20T09:52:45.167Z,3432
2018-12-20T09:53:47.397Z,3544
2018-12-20T09:54:49.790Z,3504
2018-12-20T09:55:51.910Z,3448
2018-12-20T09:56:54.131Z,3456
2018-12-20T09:57:56.310Z,3516
2018-12-20T09:58:58.434Z,3520
2018-12-20T10:00:00.606Z,3416
2018-12-20T10:01:03.067Z,3380
2018-12-20T10:02:05.202Z,3444
2018-12-20T10:03:07.325Z,3360
2018-12-20T10:04:09.421Z,3244
2018-12-20T10:05:11.550Z,3348
2018-12-20T10:06:13.678Z,3464
2018-12-20T10:07:15.857Z,3528
2018-12-20T10:08:18.368Z,3508
2018-12-20T10:09:20.762Z,3476
2018-12-20T10:10:22.876Z,3412
2018-12-20T10:11:25.205Z,3392
2018-12-20T10:12:27.331Z,3392
2018-12-20T10:13:29.429Z,3460
2018-12-20T10:14:31.550Z,3680
2018-12-20T10:15:33.675Z,3932
2018-12-20T10:16:38.477Z,4452
2018-12-20T10:17:40.611Z,4864
2018-12-20T10:18:42.728Z,5196
2018-12-20T10:19:44.843Z,5628
2018-12-20T10:20:46.951Z,6044
2018-12-20T10:21:49.099Z,6232
2018-12-20T10:22:51.202Z,6380
2018-12-20T10:23:53.315Z,6588
2018-12-20T10:24:55.831Z,6624
2018-12-20T10:25:58.227Z,6524
2018-12-20T10:27:00.351Z,6440
2018-12-20T10:28:02.595Z,6208
2018-12-20T10:29:04.708Z,5944
2018-12-20T10:30:07.094Z,5768
2018-12-20T10:31:09.224Z,5960
2018-12-20T10:32:11.422Z,6336
2018-12-20T10:33:13.534Z,6740
2018-12-20T10:34:15.950Z,6952
2018-12-20T10:35:18.052Z,7068
2018-12-20T10:36:20.451Z,7032
2018-12-20T10:37:22.634Z,7560
2018-12-20T10:38:24.752Z,8816
2018-12-20T10:39:26.865Z,11664
2018-12-20T10:40:28.990Z,13072
2018-12-20T10:41:31.100Z,13516
2018-12-20T10:50:54.883Z,8344
2018-12-20T10:51:57.019Z,7196
2018-12-20T10:52:59.138Z,6244
2018-12-20T10:54:01.643Z,6308
2018-12-20T10:55:03.788Z,7216
2018-12-20T10:56:05.951Z,7616
2018-12-20T10:57:08.072Z,7964
2018-12-20T10:58:10.194Z,9216
2018-12-20T10:59:12.684Z,10660
2018-12-20T11:00:14.910Z,11688
2018-12-20T11:01:17.024Z,13780
2018-12-20T11:02:19.442Z,14480
2018-12-20T11:03:21.543Z,16332
2018-12-20T11:04:23.947Z,13620
2018-12-20T11:05:26.111Z,12216
2018-12-20T11:06:28.230Z,10840
2018-12-20T11:07:30.723Z,9492
2018-12-20T11:08:33.403Z,8384
2018-12-20T11:09:35.522Z,7852
2018-12-20T11:10:37.693Z,7868
2018-12-20T11:11:39.833Z,8084
2018-12-20T11:12:41.935Z,8332
2018-12-20T11:13:44.051Z,8136
2018-12-20T11:14:46.200Z,8092
2018-12-20T11:15:48.438Z,7676
2018-12-20T11:16:50.571Z,7004
2018-12-20T11:17:52.686Z,6708
2018-12-20T11:18:54.796Z,6828
2018-12-20T11:19:57.028Z,7292
2018-12-20T11:20:59.162Z,7388
2018-12-20T11:22:01.278Z,7116
2018-12-20T11:23:03.387Z,6820
2018-12-20T11:24:05.498Z,7004
2018-12-20T11:25:08.286Z,6640
2018-12-20T11:26:10.608Z,6184
2018-12-20T11:27:12.717Z,6024
2018-12-20T11:28:15.136Z,6100
2018-12-20T11:29:17.252Z,6324
2018-12-20T11:30:19.405Z,6508
2018-12-20T11:31:21.533Z,6584
2018-12-20T11:32:23.640Z,6192
2018-12-20T11:33:25.812Z,5892
2018-12-20T11:34:27.942Z,5956
2018-12-20T11:35:30.075Z,6568
2018-12-20T11:36:32.461Z,6660
2018-12-20T11:37:34.586Z,6544
2018-12-20T11:38:37.094Z,6528
2018-12-20T11:39:39.201Z,6452
2018-12-20T11:40:41.336Z,6156
2018-12-20T11:41:43.456Z,5824
2018-12-20T11:42:45.615Z,5600
2018-12-20T11:43:47.730Z,5600
2018-12-20T11:44:49.874Z,6020
2018-12-20T11:45:52.266Z,6372
2018-12-20T11:46:54.716Z,6796
2018-12-20T11:47:56.845Z,6524
2018-12-20T11:48:58.944Z,6432
2018-12-20T11:50:01.077Z,6072
2018-12-20T11:51:03.503Z,6440
2018-12-20T11:52:05.608Z,7308
2018-12-20T11:53:07.734Z,7740
2018-12-20T11:54:09.864Z,8072
2018-12-20T11:55:11.977Z,8660
2018-12-20T11:56:14.120Z,9340
2018-12-20T11:57:16.229Z,9848
2018-12-20T11:58:18.335Z,9812
2018-12-20T11:59:20.457Z,9752
2018-12-20T12:00:22.845Z,9812
2018-12-20T12:01:24.973Z,9924
2018-12-20T12:02:27.086Z,13792
2018-12-20T12:03:29.479Z,11308
2018-12-20T12:04:31.602Z,12172
2018-12-20T12:05:33.703Z,12400
2018-12-20T12:06:36.439Z,11920
2018-12-20T12:07:38.622Z,11512
2018-12-20T12:08:40.744Z,10348
2018-12-20T12:09:42.851Z,9332
2018-12-20T12:10:44.975Z,8792
2018-12-20T12:11:47.090Z,8232
2018-12-20T12:12:49.196Z,7664
2018-12-20T12:13:51.628Z,7268
2018-12-20T12:14:53.741Z,7108
2018-12-20T12:15:55.858Z,7224
2018-12-20T12:16:58.265Z,7624
2018-12-20T12:18:00.412Z,8228
2018-12-20T12:19:02.515Z,8844
2018-12-20T12:20:04.630Z,9460
2018-12-20T12:21:06.756Z,9432
2018-12-20T12:22:08.862Z,9428
2018-12-20T12:23:11.289Z,9248
2018-12-20T12:24:13.443Z,8852
2018-12-20T12:25:15.825Z,8472
2018-12-20T12:26:17.948Z,8280
2018-12-20T12:27:20.082Z,8328
2018-12-20T12:28:22.188Z,8920
2018-12-20T12:29:24.657Z,10428
2018-12-20T12:30:26.784Z,11504
2018-12-20T12:31:28.892Z,10520
2018-12-20T12:32:31.014Z,9836
2018-12-20T12:33:33.145Z,10904
2018-12-20T12:34:35.254Z,12108
2018-12-20T12:35:37.384Z,12652
2018-12-20T12:36:39.512Z,12184
2018-12-20T12:37:41.720Z,13288
2018-12-20T12:38:43.824Z,13768
2018-12-20T12:39:45.945Z,13108
2018-12-20T12:40:48.068Z,11596
2018-12-20T12:41:50.612Z,10604
2018-12-20T12:42:52.720Z,10360
2018-12-20T12:43:54.870Z,10480
2018-12-20T12:44:57.005Z,10372
2018-12-20T12:45:59.239Z,10060
2018-12-20T12:47:01.385Z,9580
2018-12-20T12:48:04.048Z,8928
2018-12-20T12:49:06.269Z,8324
2018-12-20T12:50:08.387Z,7820
2018-12-20T12:51:10.524Z,7492
2018-12-20T12:52:12.635Z,7192
2018-12-20T12:53:14.754Z,6956
2018-12-20T12:54:16.882Z,6736
2018-12-20T12:55:18.985Z,6632
2018-12-20T12:56:21.114Z,6640
2018-12-20T12:57:23.243Z,6608
2018-12-20T12:58:25.360Z,6616
2018-12-20T12:59:27.548Z,6680
2018-12-20T13:00:29.676Z,6840
2018-12-20T13:01:31.789Z,6932
2018-12-20T13:02:33.918Z,6724
2018-12-20T13:03:36.045Z,6288
2018-12-20T13:04:38.264Z,5972
2018-12-20T13:05:40.379Z,5692
2018-12-20T13:06:42.510Z,5332
2018-12-20T13:07:44.654Z,4952
2018-12-20T13:08:47.060Z,4708
2018-12-20T13:09:49.185Z,4572
2018-12-20T13:10:51.579Z,4532
2018-12-20T13:11:53.710Z,4488
2018-12-20T13:12:55.821Z,4340
2018-12-20T13:13:58.043Z,4040
2018-12-20T13:15:00.163Z,3680
2018-12-20T13:16:02.615Z,3448
2018-12-20T13:17:04.723Z,3416
2018-12-20T13:18:13.660Z,3444
2018-12-20T13:19:16.196Z,3664
2018-12-20T13:20:18.301Z,3776
2018-12-20T13:21:20.433Z,3848
2018-12-20T13:22:22.559Z,3880
2018-12-20T13:23:25.705Z,3840
2018-12-20T13:24:27.913Z,3744
2018-12-20T13:25:30.054Z,3756
2018-12-20T13:26:32.451Z,3748
2018-12-20T13:27:34.561Z,3756
2018-12-20T13:28:36.696Z,3736
2018-12-20T13:29:39.097Z,3564
2018-12-20T13:30:41.214Z,3340
2018-12-20T13:31:43.354Z,3184
2018-12-20T13:32:45.762Z,3020
2018-12-20T13:33:47.871Z,2844
2018-12-20T13:34:50.343Z,2636
2018-12-20T13:35:52.466Z,2496
2018-12-20T13:36:54.594Z,2540
2018-12-20T13:37:56.730Z,2572
2018-12-20T13:38:58.863Z,2504
2018-12-20T13:40:00.976Z,2352
2018-12-20T13:41:03.438Z,2224
2018-12-20T13:42:05.545Z,2180
2018-12-20T13:43:07.652Z,2144
2018-12-20T13:44:09.834Z,2128
2018-12-20T13:45:11.934Z,2080
2018-12-20T13:46:14.437Z,1968
2018-12-20T13:47:16.580Z,1780
2018-12-20T13:48:22.290Z,1512
2018-12-20T13:49:24.959Z,1312
2018-12-20T13:50:27.481Z,1200
2018-12-20T13:51:29.606Z,1152
2018-12-20T13:52:31.716Z,1176
2018-12-20T13:53:33.834Z,1220
2018-12-20T13:54:36.019Z,1252
2018-12-20T13:55:38.425Z,1300
2018-12-20T13:56:40.550Z,1380
2018-12-20T13:57:42.657Z,1376
2018-12-20T13:58:44.778Z,1316
2018-12-20T13:59:46.894Z,1292
2018-12-20T14:00:49.007Z,1200
2018-12-20T14:01:51.527Z,1100
2018-12-20T14:02:54.017Z,1064
2018-12-20T14:03:57.135Z,972
2018-12-20T14:04:59.396Z,936
2018-12-20T14:06:01.512Z,928
2018-12-20T14:07:03.734Z,928
2018-12-20T14:08:06.146Z,1004
2018-12-20T14:09:08.259Z,1072
2018-12-20T14:10:10.459Z,1104
2018-12-20T14:11:12.600Z,1064
2018-12-20T14:12:15.008Z,992
2018-12-20T14:13:17.111Z,1000
2018-12-20T14:14:19.240Z,940
2018-12-20T14:15:21.352Z,848
2018-12-20T14:16:23.462Z,764
2018-12-20T14:17:25.588Z,668
2018-12-20T14:18:30.953Z,584
2018-12-20T14:19:33.673Z,480
2018-12-20T14:20:35.792Z,412
2018-12-20T14:21:38.205Z,352
2018-12-20T14:22:40.415Z,300
2018-12-20T14:23:42.540Z,280
2018-12-20T14:24:44.735Z,276
2018-12-20T14:25:46.838Z,272
2018-12-20T14:26:48.970Z,276
2018-12-20T14:27:51.382Z,288
2018-12-20T14:28:53.895Z,288
2018-12-20T14:29:56.296Z,296
2018-12-20T14:30:58.434Z,292
2018-12-20T14:32:00.546Z,300
2018-12-20T14:33:02.967Z,304
2018-12-20T14:34:05.074Z,320
2018-12-20T14:35:07.215Z,288
2018-12-20T14:36:09.900Z,272
2018-12-20T14:37:12.025Z,264
2018-12-20T14:38:14.151Z,236
2018-12-20T14:39:16.264Z,208
2018-12-20T14:40:18.411Z,204
2018-12-20T14:41:20.527Z,240
2018-12-20T14:42:22.630Z,256
2018-12-20T14:43:25.023Z,244
2018-12-20T14:44:27.142Z,216
2018-12-20T14:45:29.265Z,184
2018-12-20T14:46:31.366Z,164
2018-12-20T14:47:33.517Z,160
2018-12-20T14:48:39.332Z,136